DLH525 EDDF-EDDH
Flight info
| Callsign | DLH525 |
|---|---|
| Flight time | 0h 55m |
| Altitude | 35000 |
| Route | MARUN3W/25C MARUN Y150 TOLGI DCT SAS/N0448F340 P605 NOLGO NOLGO6A |
| Aircraft | A20N/M-SDE2E3FGHIRWXY/LB1 |
Departure
| Time | 2026-05-07 18:33 |
|---|---|
| Airport | Frankfurt Main Airport (EDDF) |
Arrival
| Time | 2026-05-07 19:28 |
|---|---|
| Airport | Hamburg Helmut Schmidt Airport (EDDH) |
| Time | Latitude | Longitude | Altitude | Speed | Heading |
|---|---|---|---|---|---|
| 2026-05-07 17:39 | 50.04533 | 8.56584 | 367 ft | 0 kts | 115° |
| 2026-05-07 18:20 | 50.04536 | 8.56576 | 366 ft | 2 kts | 115° |
| 2026-05-07 18:20 | 50.04542 | 8.56555 | 366 ft | 2 kts | 115° |
| 2026-05-07 18:20 | 50.04548 | 8.56533 | 366 ft | 2 kts | 115° |
| 2026-05-07 18:20 | 50.04554 | 8.56513 | 366 ft | 2 kts | 115° |
| 2026-05-07 18:21 | 50.04561 | 8.56491 | 366 ft | 2 kts | 114° |
| 2026-05-07 18:21 | 50.04570 | 8.56473 | 366 ft | 2 kts | 152° |
| 2026-05-07 18:21 | 50.04585 | 8.56467 | 366 ft | 2 kts | 182° |
| 2026-05-07 18:21 | 50.04594 | 8.56469 | 366 ft | 0 kts | 201° |
| 2026-05-07 18:22 | 50.04601 | 8.56474 | 366 ft | 0 kts | 205° |
| 2026-05-07 18:25 | 50.04568 | 8.56451 | 365 ft | 10 kts | 204° |
| 2026-05-07 18:25 | 50.04513 | 8.56367 | 364 ft | 12 kts | 245° |
| 2026-05-07 18:25 | 50.04480 | 8.56232 | 363 ft | 14 kts | 249° |
| 2026-05-07 18:25 | 50.04448 | 8.56088 | 362 ft | 13 kts | 253° |
| 2026-05-07 18:26 | 50.04413 | 8.55954 | 361 ft | 13 kts | 221° |
| 2026-05-07 18:26 | 50.04335 | 8.55932 | 360 ft | 11 kts | 158° |
| 2026-05-07 18:26 | 50.04251 | 8.55946 | 357 ft | 13 kts | 211° |
| 2026-05-07 18:26 | 50.04184 | 8.55916 | 354 ft | 4 kts | 160° |
| 2026-05-07 18:27 | 50.04166 | 8.55929 | 353 ft | 2 kts | 156° |
| 2026-05-07 18:27 | 50.04142 | 8.55945 | 353 ft | 0 kts | 157° |
| 2026-05-07 18:27 | 50.04133 | 8.55951 | 352 ft | 3 kts | 157° |
| 2026-05-07 18:27 | 50.04091 | 8.55971 | 352 ft | 9 kts | 178° |
| 2026-05-07 18:28 | 50.04026 | 8.55855 | 348 ft | 19 kts | 249° |
| 2026-05-07 18:28 | 50.03978 | 8.55656 | 349 ft | 19 kts | 251° |
| 2026-05-07 18:28 | 50.03933 | 8.55468 | 349 ft | 17 kts | 251° |
| 2026-05-07 18:28 | 50.03898 | 8.55320 | 348 ft | 11 kts | 246° |
| 2026-05-07 18:29 | 50.03864 | 8.55200 | 347 ft | 12 kts | 251° |
| 2026-05-07 18:29 | 50.03832 | 8.55055 | 344 ft | 15 kts | 253° |
| 2026-05-07 18:29 | 50.03803 | 8.54915 | 343 ft | 9 kts | 251° |
| 2026-05-07 18:29 | 50.03780 | 8.54817 | 342 ft | 10 kts | 249° |
| 2026-05-07 18:30 | 50.03752 | 8.54704 | 339 ft | 11 kts | 249° |
| 2026-05-07 18:30 | 50.03722 | 8.54585 | 338 ft | 4 kts | 251° |
| 2026-05-07 18:30 | 50.03711 | 8.54536 | 338 ft | 5 kts | 251° |
| 2026-05-07 18:30 | 50.03695 | 8.54469 | 337 ft | 7 kts | 249° |
| 2026-05-07 18:31 | 50.03674 | 8.54383 | 337 ft | 9 kts | 249° |
| 2026-05-07 18:31 | 50.03649 | 8.54316 | 337 ft | 5 kts | 213° |
| 2026-05-07 18:31 | 50.03614 | 8.54310 | 336 ft | 5 kts | 162° |
| 2026-05-07 18:31 | 50.03568 | 8.54334 | 335 ft | 9 kts | 161° |
| 2026-05-07 18:32 | 50.03507 | 8.54394 | 334 ft | 11 kts | 116° |
| 2026-05-07 18:32 | 50.03522 | 8.54554 | 335 ft | 22 kts | 70° |
| 2026-05-07 18:32 | 50.03644 | 8.55058 | 340 ft | 83 kts | 70° |
| 2026-05-07 18:32 | 50.03918 | 8.56202 | 348 ft | 141 kts | 69° |
| 2026-05-07 18:33 | 50.04283 | 8.57756 | 720 ft | 155 kts | 71° |
| 2026-05-07 18:33 | 50.04620 | 8.59326 | 1303 ft | 157 kts | 69° |
| 2026-05-07 18:33 | 50.05009 | 8.60926 | 1865 ft | 162 kts | 68° |
| 2026-05-07 18:33 | 50.05440 | 8.62553 | 2468 ft | 165 kts | 57° |
| 2026-05-07 18:34 | 50.06332 | 8.63630 | 2977 ft | 171 kts | 16° |
| 2026-05-07 18:34 | 50.07554 | 8.63664 | 3373 ft | 188 kts | 352° |
| 2026-05-07 18:34 | 50.08910 | 8.63476 | 3762 ft | 209 kts | 357° |
| 2026-05-07 18:34 | 50.10450 | 8.63336 | 4186 ft | 231 kts | 356° |
| 2026-05-07 18:35 | 50.12074 | 8.63199 | 4815 ft | 243 kts | 357° |
| 2026-05-07 18:35 | 50.13802 | 8.63069 | 5456 ft | 255 kts | 358° |
| 2026-05-07 18:35 | 50.15608 | 8.62965 | 6188 ft | 263 kts | 358° |
| 2026-05-07 18:35 | 50.17451 | 8.62863 | 7035 ft | 266 kts | 357° |
| 2026-05-07 18:36 | 50.19312 | 8.62754 | 7859 ft | 270 kts | 357° |
| 2026-05-07 18:36 | 50.21196 | 8.62637 | 8637 ft | 275 kts | 356° |
| 2026-05-07 18:36 | 50.23109 | 8.62513 | 9397 ft | 279 kts | 356° |
| 2026-05-07 18:36 | 50.25035 | 8.62385 | 10141 ft | 284 kts | 356° |
| 2026-05-07 18:37 | 50.27037 | 8.62248 | 10710 ft | 295 kts | 356° |
| 2026-05-07 18:37 | 50.29128 | 8.62105 | 11074 ft | 312 kts | 356° |
| 2026-05-07 18:37 | 50.31352 | 8.61953 | 11440 ft | 328 kts | 356° |
| 2026-05-07 18:37 | 50.33642 | 8.61857 | 12065 ft | 334 kts | 359° |
| 2026-05-07 18:38 | 50.35970 | 8.61847 | 12769 ft | 337 kts | 359° |
| 2026-05-07 18:38 | 50.38349 | 8.61855 | 13443 ft | 341 kts | 359° |
| 2026-05-07 18:38 | 50.40715 | 8.61863 | 14071 ft | 344 kts | 359° |
| 2026-05-07 18:38 | 50.43105 | 8.61871 | 14702 ft | 348 kts | 359° |
| 2026-05-07 18:39 | 50.45510 | 8.62014 | 15333 ft | 352 kts | 2° |
| 2026-05-07 18:39 | 50.47961 | 8.62324 | 15941 ft | 355 kts | 4° |
| 2026-05-07 18:39 | 50.50444 | 8.62674 | 16523 ft | 359 kts | 4° |
| 2026-05-07 18:39 | 50.52938 | 8.63032 | 17094 ft | 362 kts | 4° |
| 2026-05-07 18:40 | 50.55438 | 8.63388 | 17660 ft | 365 kts | 4° |
| 2026-05-07 18:40 | 50.57954 | 8.63746 | 18206 ft | 368 kts | 4° |
| 2026-05-07 18:40 | 50.60518 | 8.64109 | 18749 ft | 370 kts | 4° |
| 2026-05-07 18:40 | 50.63100 | 8.64475 | 19293 ft | 373 kts | 4° |
| 2026-05-07 18:41 | 50.65680 | 8.64840 | 19827 ft | 375 kts | 4° |
| 2026-05-07 18:41 | 50.68263 | 8.65206 | 20328 ft | 378 kts | 4° |
| 2026-05-07 18:41 | 50.70881 | 8.65577 | 20817 ft | 381 kts | 4° |
| 2026-05-07 18:41 | 50.73553 | 8.65956 | 21308 ft | 383 kts | 4° |
| 2026-05-07 18:42 | 50.76215 | 8.66333 | 21786 ft | 386 kts | 4° |
| 2026-05-07 18:42 | 50.78878 | 8.66734 | 22241 ft | 390 kts | 6° |
| 2026-05-07 18:42 | 50.81480 | 8.67949 | 22632 ft | 397 kts | 25° |
| 2026-05-07 18:42 | 50.83743 | 8.70495 | 23077 ft | 402 kts | 44° |
| 2026-05-07 18:43 | 50.85510 | 8.73906 | 23548 ft | 405 kts | 52° |
| 2026-05-07 18:43 | 50.87167 | 8.77452 | 23964 ft | 407 kts | 52° |
| 2026-05-07 18:43 | 50.88846 | 8.81056 | 24375 ft | 410 kts | 52° |
| 2026-05-07 18:43 | 50.90572 | 8.84724 | 24796 ft | 413 kts | 52° |
| 2026-05-07 18:44 | 50.92294 | 8.88350 | 25200 ft | 415 kts | 52° |
| 2026-05-07 18:44 | 50.94019 | 8.91966 | 25601 ft | 417 kts | 52° |
| 2026-05-07 18:44 | 50.95779 | 8.95654 | 25993 ft | 419 kts | 52° |
| 2026-05-07 18:44 | 50.97515 | 8.99295 | 26379 ft | 421 kts | 52° |
| 2026-05-07 18:45 | 50.99281 | 9.03007 | 26772 ft | 423 kts | 52° |
| 2026-05-07 18:45 | 51.01051 | 9.06737 | 27161 ft | 424 kts | 52° |
| 2026-05-07 18:45 | 51.02813 | 9.10461 | 27533 ft | 425 kts | 52° |
| 2026-05-07 18:45 | 51.04586 | 9.14211 | 27893 ft | 427 kts | 52° |
| 2026-05-07 18:46 | 51.06368 | 9.17986 | 28213 ft | 429 kts | 52° |
| 2026-05-07 18:46 | 51.08170 | 9.21796 | 28517 ft | 431 kts | 51° |
| 2026-05-07 18:46 | 51.10206 | 9.25234 | 28780 ft | 432 kts | 38° |
| 2026-05-07 18:46 | 51.12706 | 9.27923 | 29079 ft | 431 kts | 26° |
| 2026-05-07 18:47 | 51.15486 | 9.29690 | 29372 ft | 431 kts | 14° |
| 2026-05-07 18:47 | 51.18375 | 9.30768 | 29673 ft | 431 kts | 11° |
| 2026-05-07 18:47 | 51.21336 | 9.31746 | 29951 ft | 433 kts | 10° |
| 2026-05-07 18:47 | 51.24305 | 9.32724 | 30210 ft | 435 kts | 10° |
| 2026-05-07 18:48 | 51.27235 | 9.33713 | 30476 ft | 437 kts | 11° |
| 2026-05-07 18:48 | 51.30207 | 9.34733 | 30747 ft | 438 kts | 11° |
| 2026-05-07 18:48 | 51.33179 | 9.35761 | 31000 ft | 439 kts | 11° |
| 2026-05-07 18:48 | 51.36168 | 9.36798 | 31226 ft | 440 kts | 11° |
| 2026-05-07 18:49 | 51.39160 | 9.37840 | 31426 ft | 442 kts | 11° |
| 2026-05-07 18:49 | 51.42164 | 9.38888 | 31619 ft | 443 kts | 11° |
| 2026-05-07 18:49 | 51.45164 | 9.39937 | 31858 ft | 442 kts | 11° |
| 2026-05-07 18:49 | 51.48133 | 9.40976 | 32043 ft | 442 kts | 11° |
| 2026-05-07 18:50 | 51.51142 | 9.42031 | 32054 ft | 442 kts | 11° |
| 2026-05-07 18:50 | 51.57123 | 9.44132 | 32054 ft | 442 kts | 11° |
| 2026-05-07 18:51 | 51.63120 | 9.46248 | 32054 ft | 443 kts | 11° |
| 2026-05-07 18:51 | 51.66124 | 9.47309 | 32215 ft | 444 kts | 11° |
| 2026-05-07 18:51 | 51.69114 | 9.48367 | 32511 ft | 442 kts | 11° |
| 2026-05-07 18:51 | 51.72109 | 9.49429 | 32804 ft | 440 kts | 11° |
| 2026-05-07 18:52 | 51.75087 | 9.50484 | 33046 ft | 439 kts | 11° |
| 2026-05-07 18:52 | 51.78046 | 9.51594 | 33261 ft | 440 kts | 13° |
| 2026-05-07 18:52 | 51.80997 | 9.52957 | 33453 ft | 440 kts | 17° |
| 2026-05-07 18:52 | 51.83901 | 9.54592 | 33612 ft | 442 kts | 20° |
| 2026-05-07 18:53 | 51.86714 | 9.56473 | 33755 ft | 443 kts | 23° |
| 2026-05-07 18:53 | 51.89483 | 9.58616 | 33905 ft | 443 kts | 25° |
| 2026-05-07 18:53 | 51.92234 | 9.60880 | 34047 ft | 444 kts | 26° |
| 2026-05-07 18:53 | 51.94979 | 9.63172 | 34197 ft | 444 kts | 26° |
| 2026-05-07 18:54 | 51.97689 | 9.65439 | 34286 ft | 440 kts | 27° |
| 2026-05-07 18:54 | 52.00418 | 9.67720 | 34020 ft | 437 kts | 27° |
| 2026-05-07 18:54 | 52.03119 | 9.69975 | 33334 ft | 441 kts | 27° |
| 2026-05-07 18:54 | 52.05832 | 9.72241 | 32430 ft | 446 kts | 27° |
| 2026-05-07 18:55 | 52.08570 | 9.74530 | 31623 ft | 447 kts | 26° |
| 2026-05-07 18:55 | 52.11356 | 9.76863 | 31084 ft | 442 kts | 26° |
| 2026-05-07 18:55 | 52.14042 | 9.79115 | 30509 ft | 437 kts | 26° |
| 2026-05-07 18:55 | 52.16740 | 9.81378 | 29873 ft | 433 kts | 26° |
| 2026-05-07 18:56 | 52.19370 | 9.83585 | 29246 ft | 429 kts | 26° |
| 2026-05-07 18:56 | 52.22050 | 9.85736 | 28616 ft | 425 kts | 24° |
| 2026-05-07 18:56 | 52.24752 | 9.87632 | 27994 ft | 421 kts | 21° |
| 2026-05-07 18:56 | 52.27472 | 9.89267 | 27370 ft | 418 kts | 18° |
| 2026-05-07 18:57 | 52.30211 | 9.90651 | 26749 ft | 414 kts | 15° |
| 2026-05-07 18:57 | 52.32965 | 9.91888 | 26129 ft | 411 kts | 14° |
| 2026-05-07 18:57 | 52.35699 | 9.93083 | 25516 ft | 407 kts | 14° |
| 2026-05-07 18:57 | 52.38415 | 9.94266 | 25129 ft | 404 kts | 14° |
| 2026-05-07 18:58 | 52.41136 | 9.95457 | 25085 ft | 405 kts | 14° |
| 2026-05-07 18:58 | 52.43843 | 9.96647 | 25083 ft | 406 kts | 14° |
| 2026-05-07 18:58 | 52.46555 | 9.97843 | 25084 ft | 406 kts | 14° |
| 2026-05-07 18:58 | 52.49295 | 9.99057 | 25083 ft | 406 kts | 14° |
| 2026-05-07 18:59 | 52.52026 | 10.00267 | 25084 ft | 407 kts | 14° |
| 2026-05-07 18:59 | 52.54735 | 10.01469 | 25085 ft | 407 kts | 14° |
| 2026-05-07 18:59 | 52.57458 | 10.02678 | 25085 ft | 407 kts | 14° |
| 2026-05-07 18:59 | 52.60180 | 10.03891 | 24895 ft | 407 kts | 14° |
| 2026-05-07 19:00 | 52.62878 | 10.05096 | 24356 ft | 403 kts | 14° |
| 2026-05-07 19:00 | 52.65581 | 10.06307 | 23818 ft | 400 kts | 14° |
| 2026-05-07 19:00 | 52.68262 | 10.07509 | 23286 ft | 397 kts | 14° |
| 2026-05-07 19:00 | 52.70889 | 10.08687 | 22762 ft | 394 kts | 14° |
| 2026-05-07 19:01 | 52.73521 | 10.09870 | 22234 ft | 391 kts | 14° |
| 2026-05-07 19:01 | 52.76128 | 10.10921 | 21710 ft | 387 kts | 10° |
| 2026-05-07 19:01 | 52.78763 | 10.11600 | 21189 ft | 383 kts | 5° |
| 2026-05-07 19:01 | 52.81410 | 10.11898 | 20665 ft | 379 kts | 1° |
| 2026-05-07 19:02 | 52.84036 | 10.12004 | 20141 ft | 376 kts | 0° |
| 2026-05-07 19:02 | 52.86622 | 10.12076 | 19537 ft | 376 kts | 360° |
| 2026-05-07 19:02 | 52.89254 | 10.12147 | 18884 ft | 376 kts | 0° |
| 2026-05-07 19:02 | 52.91843 | 10.12222 | 18250 ft | 376 kts | 0° |
| 2026-05-07 19:03 | 52.94437 | 10.12300 | 17614 ft | 367 kts | 0° |
| 2026-05-07 19:03 | 52.96946 | 10.12380 | 16982 ft | 358 kts | 0° |
| 2026-05-07 19:03 | 52.99412 | 10.12460 | 16367 ft | 355 kts | 0° |
| 2026-05-07 19:03 | 53.01838 | 10.12540 | 15763 ft | 351 kts | 1° |
| 2026-05-07 19:04 | 53.04267 | 10.12621 | 15127 ft | 348 kts | 1° |
| 2026-05-07 19:04 | 53.06657 | 10.12700 | 14501 ft | 346 kts | 1° |
| 2026-05-07 19:04 | 53.09061 | 10.12780 | 13861 ft | 345 kts | 1° |
| 2026-05-07 19:04 | 53.11462 | 10.12859 | 13244 ft | 342 kts | 1° |
| 2026-05-07 19:05 | 53.13781 | 10.12936 | 12624 ft | 332 kts | 1° |
| 2026-05-07 19:05 | 53.16053 | 10.13011 | 12003 ft | 323 kts | 1° |
| 2026-05-07 19:05 | 53.18249 | 10.13084 | 11390 ft | 313 kts | 1° |
| 2026-05-07 19:05 | 53.20407 | 10.13156 | 10759 ft | 305 kts | 1° |
| 2026-05-07 19:06 | 53.22494 | 10.13226 | 10263 ft | 301 kts | 2° |
| 2026-05-07 19:06 | 53.26533 | 10.13365 | 10086 ft | 284 kts | 2° |
| 2026-05-07 19:06 | 53.28510 | 10.13433 | 10087 ft | 284 kts | 2° |
| 2026-05-07 19:07 | 53.30467 | 10.13501 | 10091 ft | 284 kts | 2° |
| 2026-05-07 19:07 | 53.32448 | 10.13570 | 10090 ft | 284 kts | 1° |
| 2026-05-07 19:07 | 53.34401 | 10.13650 | 10090 ft | 283 kts | 4° |
| 2026-05-07 19:07 | 53.36247 | 10.14457 | 10071 ft | 266 kts | 30° |
| 2026-05-07 19:08 | 53.37594 | 10.16414 | 10081 ft | 250 kts | 50° |
| 2026-05-07 19:08 | 53.38643 | 10.18651 | 10041 ft | 244 kts | 53° |
| 2026-05-07 19:08 | 53.39640 | 10.20934 | 9712 ft | 244 kts | 54° |
| 2026-05-07 19:08 | 53.40646 | 10.23264 | 9372 ft | 244 kts | 54° |
| 2026-05-07 19:09 | 53.41625 | 10.25534 | 9086 ft | 242 kts | 54° |
| 2026-05-07 19:09 | 53.42605 | 10.27805 | 8793 ft | 240 kts | 54° |
| 2026-05-07 19:09 | 53.43581 | 10.30064 | 8497 ft | 238 kts | 54° |
| 2026-05-07 19:09 | 53.44545 | 10.32293 | 8208 ft | 237 kts | 54° |
| 2026-05-07 19:10 | 53.45511 | 10.34530 | 7918 ft | 235 kts | 54° |
| 2026-05-07 19:10 | 53.46462 | 10.36734 | 7621 ft | 234 kts | 54° |
| 2026-05-07 19:10 | 53.47402 | 10.38909 | 7332 ft | 232 kts | 54° |
| 2026-05-07 19:10 | 53.48347 | 10.41090 | 7110 ft | 228 kts | 54° |
| 2026-05-07 19:11 | 53.49280 | 10.43238 | 7095 ft | 229 kts | 54° |
| 2026-05-07 19:11 | 53.50248 | 10.45395 | 7081 ft | 228 kts | 50° |
| 2026-05-07 19:11 | 53.51427 | 10.47097 | 6803 ft | 229 kts | 25° |
| 2026-05-07 19:11 | 53.52996 | 10.47538 | 6439 ft | 235 kts | 353° |
| 2026-05-07 19:12 | 53.54539 | 10.46673 | 6149 ft | 237 kts | 337° |
| 2026-05-07 19:12 | 53.56005 | 10.45429 | 5851 ft | 236 kts | 334° |
| 2026-05-07 19:12 | 53.57456 | 10.44112 | 5551 ft | 236 kts | 334° |
| 2026-05-07 19:12 | 53.58881 | 10.42798 | 5257 ft | 235 kts | 334° |
| 2026-05-07 19:13 | 53.60299 | 10.41483 | 5000 ft | 232 kts | 334° |
| 2026-05-07 19:13 | 53.61722 | 10.40155 | 4964 ft | 234 kts | 334° |
| 2026-05-07 19:13 | 53.63149 | 10.38822 | 4961 ft | 234 kts | 334° |
| 2026-05-07 19:13 | 53.64569 | 10.37494 | 4961 ft | 235 kts | 334° |
| 2026-05-07 19:14 | 53.65993 | 10.36160 | 4961 ft | 235 kts | 334° |
| 2026-05-07 19:14 | 53.67327 | 10.34562 | 4945 ft | 239 kts | 312° |
| 2026-05-07 19:14 | 53.68060 | 10.32066 | 4956 ft | 245 kts | 280° |
| 2026-05-07 19:14 | 53.67935 | 10.29229 | 4952 ft | 247 kts | 248° |
| 2026-05-07 19:15 | 53.67136 | 10.26671 | 4961 ft | 246 kts | 236° |
| 2026-05-07 19:15 | 53.66190 | 10.24266 | 4969 ft | 246 kts | 234° |
| 2026-05-07 19:15 | 53.65225 | 10.21908 | 4958 ft | 245 kts | 234° |
| 2026-05-07 19:15 | 53.64217 | 10.19622 | 4913 ft | 244 kts | 230° |
| 2026-05-07 19:16 | 53.63149 | 10.17404 | 4948 ft | 245 kts | 229° |
| 2026-05-07 19:16 | 53.62061 | 10.15187 | 4951 ft | 245 kts | 229° |
| 2026-05-07 19:16 | 53.60977 | 10.12988 | 4957 ft | 245 kts | 229° |
| 2026-05-07 19:16 | 53.59886 | 10.10777 | 4962 ft | 246 kts | 229° |
| 2026-05-07 19:17 | 53.58780 | 10.08535 | 4965 ft | 246 kts | 229° |
| 2026-05-07 19:17 | 53.57691 | 10.06325 | 4965 ft | 247 kts | 229° |
| 2026-05-07 19:17 | 53.56609 | 10.04127 | 4966 ft | 246 kts | 229° |
| 2026-05-07 19:17 | 53.55515 | 10.01901 | 4967 ft | 246 kts | 229° |
| 2026-05-07 19:18 | 53.54424 | 9.99681 | 4967 ft | 246 kts | 229° |
| 2026-05-07 19:18 | 53.53332 | 9.97461 | 4967 ft | 245 kts | 229° |
| 2026-05-07 19:18 | 53.52254 | 9.95276 | 4965 ft | 245 kts | 229° |
| 2026-05-07 19:18 | 53.51162 | 9.93068 | 4965 ft | 245 kts | 229° |
| 2026-05-07 19:19 | 53.50078 | 9.90876 | 4887 ft | 239 kts | 229° |
| 2026-05-07 19:19 | 53.49019 | 9.88734 | 4555 ft | 241 kts | 229° |
| 2026-05-07 19:19 | 53.47953 | 9.86576 | 4213 ft | 243 kts | 229° |
| 2026-05-07 19:19 | 53.46873 | 9.84380 | 3984 ft | 241 kts | 229° |
| 2026-05-07 19:20 | 53.45816 | 9.82223 | 3968 ft | 242 kts | 229° |
| 2026-05-07 19:20 | 53.44751 | 9.80045 | 3966 ft | 240 kts | 229° |
| 2026-05-07 19:20 | 53.43707 | 9.77904 | 3834 ft | 233 kts | 229° |
| 2026-05-07 19:20 | 53.42701 | 9.75829 | 3716 ft | 226 kts | 229° |
| 2026-05-07 19:21 | 53.41727 | 9.73809 | 3558 ft | 221 kts | 232° |
| 2026-05-07 19:21 | 53.41094 | 9.71500 | 3255 ft | 222 kts | 264° |
| 2026-05-07 19:21 | 53.41324 | 9.68992 | 3006 ft | 217 kts | 302° |
| 2026-05-07 19:21 | 53.42265 | 9.67075 | 2986 ft | 214 kts | 320° |
| 2026-05-07 19:22 | 53.43428 | 9.65572 | 2955 ft | 209 kts | 342° |
| 2026-05-07 19:22 | 53.44819 | 9.65282 | 2957 ft | 201 kts | 14° |
| 2026-05-07 19:22 | 53.46124 | 9.65999 | 2971 ft | 197 kts | 32° |
| 2026-05-07 19:22 | 53.47230 | 9.67326 | 2942 ft | 192 kts | 45° |
| 2026-05-07 19:23 | 53.48133 | 9.68833 | 3000 ft | 176 kts | 49° |
| 2026-05-07 19:23 | 53.48958 | 9.70326 | 2996 ft | 174 kts | 51° |
| 2026-05-07 19:23 | 53.49759 | 9.71856 | 3007 ft | 174 kts | 52° |
| 2026-05-07 19:23 | 53.50536 | 9.73389 | 2979 ft | 173 kts | 53° |
| 2026-05-07 19:24 | 53.51310 | 9.74953 | 2971 ft | 173 kts | 53° |
| 2026-05-07 19:24 | 53.52070 | 9.76500 | 2966 ft | 173 kts | 53° |
| 2026-05-07 19:24 | 53.52844 | 9.78083 | 2822 ft | 173 kts | 53° |
| 2026-05-07 19:24 | 53.53604 | 9.79640 | 2626 ft | 173 kts | 53° |
| 2026-05-07 19:25 | 53.54369 | 9.81204 | 2383 ft | 172 kts | 53° |
| 2026-05-07 19:25 | 53.55123 | 9.82743 | 2146 ft | 171 kts | 53° |
| 2026-05-07 19:25 | 53.55881 | 9.84290 | 1910 ft | 169 kts | 53° |
| 2026-05-07 19:25 | 53.56600 | 9.85750 | 1674 ft | 158 kts | 53° |
| 2026-05-07 19:26 | 53.57283 | 9.87136 | 1456 ft | 147 kts | 53° |
| 2026-05-07 19:26 | 53.57897 | 9.88385 | 1292 ft | 131 kts | 52° |
| 2026-05-07 19:26 | 53.58443 | 9.89516 | 1058 ft | 123 kts | 53° |
| 2026-05-07 19:26 | 53.58998 | 9.90635 | 899 ft | 124 kts | 52° |
| 2026-05-07 19:27 | 53.59546 | 9.91733 | 737 ft | 124 kts | 52° |
| 2026-05-07 19:27 | 53.60095 | 9.92861 | 583 ft | 124 kts | 51° |
| 2026-05-07 19:27 | 53.60647 | 9.93978 | 433 ft | 124 kts | 51° |
| 2026-05-07 19:27 | 53.61198 | 9.95095 | 273 ft | 125 kts | 51° |
| 2026-05-07 19:28 | 53.61749 | 9.96208 | 113 ft | 125 kts | 51° |
| 2026-05-07 19:28 | 53.62305 | 9.97335 | 29 ft | 119 kts | 51° |
| 2026-05-07 19:28 | 53.62741 | 9.98230 | 35 ft | 77 kts | 51° |
| 2026-05-07 19:28 | 53.63017 | 9.98789 | 36 ft | 47 kts | 50° |
| 2026-05-07 19:29 | 53.63172 | 9.99102 | 35 ft | 30 kts | 53° |
| 2026-05-07 19:29 | 53.63280 | 9.99357 | 31 ft | 23 kts | 73° |
| 2026-05-07 19:29 | 53.63287 | 9.99545 | 31 ft | 6 kts | 97° |
| 2026-05-07 19:29 | 53.63285 | 9.99571 | 31 ft | 0 kts | 97° |
| 2026-05-07 19:30 | 53.63284 | 9.99584 | 31 ft | 1 kts | 98° |
| 2026-05-07 19:30 | 53.63283 | 9.99594 | 31 ft | 1 kts | 98° |
| 2026-05-07 19:30 | 53.63282 | 9.99616 | 31 ft | 0 kts | 98° |
| 2026-05-07 19:30 | 53.63281 | 9.99616 | 31 ft | 0 kts | 98° |
| 2026-05-07 19:31 | 53.63280 | 9.99636 | 31 ft | 0 kts | 99° |
| 2026-05-07 19:31 | 53.63269 | 9.99687 | 31 ft | 8 kts | 118° |
| 2026-05-07 19:31 | 53.63209 | 9.99771 | 29 ft | 14 kts | 150° |
| 2026-05-07 19:31 | 53.63105 | 9.99860 | 29 ft | 18 kts | 154° |
| 2026-05-07 19:32 | 53.62997 | 9.99959 | 33 ft | 16 kts | 149° |
| 2026-05-07 19:32 | 53.62959 | 10.00065 | 36 ft | 10 kts | 45° |
| 2026-05-07 19:32 | 53.63020 | 10.00135 | 37 ft | 10 kts | 33° |
| 2026-05-07 19:32 | 53.63089 | 10.00188 | 37 ft | 11 kts | 9° |
| 2026-05-07 19:33 | 53.63177 | 10.00178 | 35 ft | 12 kts | 348° |
| 2026-05-07 19:33 | 53.63200 | 10.00222 | 38 ft | 3 kts | 78° |
| 2026-05-07 19:33 | 53.63203 | 10.00265 | 39 ft | 3 kts | 86° |
| 2026-05-07 19:33 | 53.63205 | 10.00310 | 41 ft | 4 kts | 86° |
| 2026-05-07 19:34 | 53.63206 | 10.00352 | 42 ft | 1 kts | 86° |
| 2026-05-07 19:34 | 53.63206 | 10.00360 | 42 ft | 0 kts | 86° |